createdAt,value
2018-02-20T00:00:21.706Z,40.20
2018-02-20T00:02:49.323Z,38.20
2018-02-20T00:05:16.920Z,35.23
2018-02-20T00:07:45.382Z,36.30
2018-02-20T00:10:12.986Z,39.93
2018-02-20T00:12:41.386Z,43.00
2018-02-20T00:15:09.010Z,40.73
2018-02-20T00:17:36.606Z,39.07
2018-02-20T00:20:04.241Z,41.03
2018-02-20T00:22:32.609Z,38.40
2018-02-20T00:25:00.212Z,44.00
2018-02-20T00:27:27.840Z,41.00
2018-02-20T00:29:56.213Z,43.53
2018-02-20T00:32:24.620Z,43.50
2018-02-20T00:34:52.231Z,37.40
2018-02-20T00:37:19.842Z,43.93
2018-02-20T00:39:47.478Z,42.13
2018-02-20T00:42:15.856Z,40.77
2018-02-20T00:44:44.750Z,44.13
2018-02-20T00:47:13.155Z,43.97
2018-02-20T00:49:40.771Z,38.67
2018-02-20T00:52:08.981Z,41.37
2018-02-20T00:54:37.241Z,45.27
2018-02-20T00:57:05.636Z,43.63
2018-02-20T00:59:34.246Z,46.60
2018-02-20T01:02:02.223Z,43.90
2018-02-20T01:04:29.836Z,50.37
2018-02-20T01:06:57.516Z,52.73
2018-02-20T01:09:25.400Z,44.63
2018-02-20T01:11:53.059Z,48.27
2018-02-20T01:14:20.764Z,48.93
2018-02-20T01:16:48.371Z,51.53
2018-02-20T01:19:16.112Z,51.30
2018-02-20T01:21:43.739Z,43.37
2018-02-20T01:24:12.125Z,53.33
2018-02-20T01:26:39.709Z,51.53
2018-02-20T01:29:07.380Z,56.83
2018-02-20T01:31:34.974Z,54.20
2018-02-20T01:34:02.610Z,54.90
2018-02-20T01:36:30.239Z,52.40
2018-02-20T01:38:58.613Z,52.73
2018-02-20T01:41:26.281Z,54.57
2018-02-20T01:43:54.655Z,54.20
2018-02-20T01:46:22.283Z,55.50
2018-02-20T01:48:50.690Z,56.63
2018-02-20T01:51:19.073Z,59.00
2018-02-20T01:53:48.235Z,55.03
2018-02-20T01:56:15.879Z,57.03
2018-02-20T01:58:43.485Z,52.47
2018-02-20T02:01:11.881Z,55.37
2018-02-20T02:03:39.537Z,56.20
2018-02-20T02:06:07.429Z,58.80
2018-02-20T02:08:35.337Z,56.70
2018-02-20T02:11:02.988Z,59.23
2018-02-20T02:13:30.585Z,55.93
2018-02-20T02:15:58.193Z,54.90
2018-02-20T02:18:25.819Z,55.33
2018-02-20T02:20:53.422Z,52.73
2018-02-20T02:23:21.209Z,56.43
2018-02-20T02:25:49.574Z,56.60
2018-02-20T02:28:17.193Z,56.47
2018-02-20T02:30:44.970Z,53.13
2018-02-20T02:33:12.684Z,56.07
2018-02-20T02:35:41.061Z,52.73
2018-02-20T02:38:08.717Z,51.87
2018-02-20T02:40:36.355Z,57.93
2018-02-20T02:43:03.967Z,54.57
2018-02-20T02:45:31.601Z,57.67
2018-02-20T02:48:00.055Z,55.00
2018-02-20T02:50:27.760Z,56.20
2018-02-20T02:52:56.179Z,59.33
2018-02-20T02:55:23.820Z,54.00
2018-02-20T02:57:51.444Z,53.70
2018-02-20T03:00:20.833Z,56.50
2018-02-20T03:02:48.441Z,60.70
2018-02-20T03:05:16.075Z,55.07
2018-02-20T03:07:43.681Z,58.63
2018-02-20T03:10:11.372Z,54.13
2018-02-20T03:12:39.071Z,58.83
2018-02-20T03:15:06.685Z,57.50
2018-02-20T03:17:34.330Z,56.23
2018-02-20T03:20:01.918Z,58.97
2018-02-20T03:22:29.578Z,63.07
2018-02-20T03:24:58.006Z,61.20
2018-02-20T03:27:25.597Z,56.73
2018-02-20T03:29:53.187Z,56.37
2018-02-20T03:32:21.581Z,58.67
2018-02-20T03:34:49.198Z,62.67
2018-02-20T03:37:16.786Z,57.90
2018-02-20T03:39:45.215Z,56.27
2018-02-20T03:42:12.827Z,55.67
2018-02-20T03:44:41.178Z,57.40
2018-02-20T03:47:08.886Z,58.23
2018-02-20T03:49:36.500Z,59.90
2018-02-20T03:52:04.094Z,56.13
2018-02-20T03:54:31.759Z,63.13
2018-02-20T03:57:00.074Z,61.13
2018-02-20T03:59:27.678Z,57.73
2018-02-20T04:01:56.082Z,69.23
2018-02-20T04:04:23.714Z,63.47
2018-02-20T04:06:52.925Z,63.50
2018-02-20T04:09:20.539Z,63.00
2018-02-20T04:11:48.130Z,61.03
2018-02-20T04:14:15.758Z,62.30
2018-02-20T04:16:43.359Z,61.10
2018-02-20T04:19:11.726Z,60.40
2018-02-20T04:21:40.131Z,60.97
2018-02-20T04:24:07.754Z,58.33
2018-02-20T04:26:35.355Z,60.17
2018-02-20T04:29:02.987Z,62.67
2018-02-20T04:31:31.359Z,59.30
2018-02-20T04:33:59.748Z,61.07
2018-02-20T04:36:28.154Z,61.13
2018-02-20T04:38:55.762Z,60.73
2018-02-20T04:41:23.390Z,62.17
2018-02-20T04:43:51.023Z,57.93
2018-02-20T04:46:18.636Z,56.80
2018-02-20T04:48:47.093Z,60.50
2018-02-20T04:51:14.773Z,69.40
2018-02-20T04:53:42.379Z,66.43
2018-02-20T04:56:09.973Z,60.43
2018-02-20T04:58:37.635Z,67.67
2018-02-20T05:01:05.250Z,63.77
2018-02-20T05:03:33.624Z,59.37
2018-02-20T05:06:02.621Z,55.27
2018-02-20T05:08:31.003Z,56.43
2018-02-20T05:10:59.410Z,60.93
2018-02-20T05:13:27.020Z,71.00
2018-02-20T05:15:56.134Z,64.77
2018-02-20T05:20:57.075Z,62.67
2018-02-20T05:23:24.703Z,63.03
2018-02-20T05:25:52.318Z,63.33
2018-02-20T05:28:19.902Z,63.87
2018-02-20T05:30:47.543Z,67.77
2018-02-20T05:33:15.150Z,66.70
2018-02-20T05:35:43.655Z,59.47
2018-02-20T05:38:12.070Z,66.77
2018-02-20T05:40:39.670Z,68.77
2018-02-20T05:43:07.278Z,65.10
2018-02-20T05:45:34.910Z,68.33
2018-02-20T05:48:02.501Z,75.80
2018-02-20T05:50:30.123Z,66.37
2018-02-20T05:52:57.795Z,63.33
2018-02-20T05:55:26.159Z,64.17
2018-02-20T05:57:53.783Z,64.73
2018-02-20T06:00:21.500Z,62.53
2018-02-20T06:02:49.915Z,67.70
2018-02-20T06:05:17.527Z,63.47
2018-02-20T06:07:45.262Z,62.07
2018-02-20T06:10:12.899Z,71.23
2018-02-20T06:12:40.486Z,65.60
2018-02-20T06:15:08.151Z,66.67
2018-02-20T06:17:35.751Z,60.60
2018-02-20T06:20:04.157Z,74.50
2018-02-20T06:22:31.765Z,65.40
2018-02-20T06:24:59.425Z,64.70
2018-02-20T06:27:27.178Z,68.50
2018-02-20T06:29:54.822Z,65.67
2018-02-20T06:32:22.446Z,62.37
2018-02-20T06:34:50.058Z,68.17
2018-02-20T06:37:17.709Z,76.00
2018-02-20T06:39:45.306Z,61.07
2018-02-20T06:42:13.663Z,64.83
2018-02-20T06:44:41.421Z,70.07
2018-02-20T06:47:09.110Z,68.43
2018-02-20T06:49:37.467Z,67.97
2018-02-20T06:52:05.743Z,62.70
2018-02-20T06:54:35.059Z,76.50
2018-02-20T06:57:03.433Z,63.60
2018-02-20T06:59:31.885Z,64.80
2018-02-20T07:01:59.511Z,68.97
2018-02-20T07:04:27.466Z,64.70
2018-02-20T07:06:56.769Z,68.40
2018-02-20T07:09:24.448Z,71.37
2018-02-20T07:11:52.572Z,61.83
2018-02-20T07:14:20.611Z,78.30
2018-02-20T07:16:48.272Z,69.77
2018-02-20T07:19:15.962Z,60.50
2018-02-20T07:21:44.421Z,69.80
2018-02-20T07:24:12.076Z,67.03
2018-02-20T07:26:39.732Z,72.03
2018-02-20T07:29:07.598Z,66.67
2018-02-20T07:31:35.237Z,69.03
2018-02-20T07:34:03.103Z,65.67
2018-02-20T07:36:30.832Z,70.17
2018-02-20T07:38:59.273Z,67.80
2018-02-20T07:41:26.941Z,62.63
2018-02-20T07:43:54.597Z,67.63
2018-02-20T07:46:22.296Z,66.33
2018-02-20T07:48:51.297Z,63.97
2018-02-20T07:51:19.049Z,64.03
2018-02-20T07:53:47.940Z,66.40
2018-02-20T07:56:16.300Z,72.07
2018-02-20T07:58:43.956Z,74.13
2018-02-20T08:01:11.618Z,74.17
2018-02-20T08:03:39.210Z,70.70
2018-02-20T08:06:06.856Z,64.50
2018-02-20T08:08:36.624Z,67.03
2018-02-20T08:11:05.038Z,61.87
2018-02-20T08:13:33.488Z,65.87
2018-02-20T08:16:01.092Z,65.40
2018-02-20T08:18:30.225Z,62.77
2018-02-20T08:20:57.885Z,59.83
2018-02-20T08:23:25.596Z,57.70
2018-02-20T08:25:53.274Z,66.43
2018-02-20T08:28:21.660Z,65.93
2018-02-20T08:30:49.342Z,63.07
2018-02-20T08:33:16.973Z,61.20
2018-02-20T08:35:45.380Z,60.77
2018-02-20T08:38:13.077Z,62.43
2018-02-20T08:40:40.722Z,58.07
2018-02-20T08:43:08.639Z,61.93
2018-02-20T08:45:37.050Z,65.30
2018-02-20T08:48:04.719Z,71.47
2018-02-20T08:50:34.033Z,64.17
2018-02-20T08:53:01.693Z,59.30
2018-02-20T08:55:29.371Z,61.43
2018-02-20T08:57:57.007Z,60.40
2018-02-20T09:00:24.647Z,57.73
2018-02-20T09:02:52.299Z,55.13
2018-02-20T09:05:20.051Z,60.40
2018-02-20T09:07:48.562Z,61.97
2018-02-20T09:10:16.215Z,57.83
2018-02-20T09:12:43.848Z,57.43
2018-02-20T09:15:12.201Z,71.30
2018-02-20T09:17:39.837Z,58.00
2018-02-20T09:20:07.457Z,64.80
2018-02-20T09:22:35.049Z,62.00
2018-02-20T09:25:02.706Z,58.93
2018-02-20T09:27:30.319Z,64.67
2018-02-20T09:29:58.698Z,66.07
2018-02-20T09:32:27.120Z,63.97
2018-02-20T09:34:54.718Z,66.33
2018-02-20T09:37:22.330Z,69.60
2018-02-20T09:39:49.995Z,67.83
2018-02-20T09:42:17.587Z,63.27
2018-02-20T09:44:45.203Z,68.10
2018-02-20T09:47:12.982Z,57.40
2018-02-20T09:49:40.733Z,65.77
2018-02-20T09:52:08.518Z,57.83
2018-02-20T09:54:36.159Z,62.43
2018-02-20T09:57:03.795Z,60.30
2018-02-20T09:59:32.210Z,63.53
2018-02-20T10:01:59.811Z,52.83
2018-02-20T10:04:27.431Z,55.50
2018-02-20T10:06:55.090Z,64.00
2018-02-20T10:09:23.574Z,63.03
2018-02-20T10:11:51.205Z,54.30
2018-02-20T10:14:18.826Z,58.73
2018-02-20T10:16:46.462Z,61.13
2018-02-20T10:19:14.072Z,54.53
2018-02-20T10:21:43.394Z,49.87
2018-02-20T10:24:11.403Z,59.73
2018-02-20T10:26:39.860Z,51.67
2018-02-20T10:29:07.492Z,48.33
2018-02-20T10:31:35.844Z,53.30
2018-02-20T10:34:05.118Z,54.87
2018-02-20T10:36:33.103Z,53.30
2018-02-20T10:39:01.478Z,55.43
2018-02-20T10:41:29.262Z,49.33
2018-02-20T10:43:57.646Z,48.80
2018-02-20T10:46:26.008Z,53.40
2018-02-20T10:48:53.751Z,47.83
2018-02-20T10:51:21.352Z,42.83
2018-02-20T10:53:49.782Z,48.77
2018-02-20T10:56:17.453Z,51.30
2018-02-20T10:58:45.061Z,46.13
2018-02-20T11:01:13.420Z,46.47
2018-02-20T11:03:41.991Z,46.17
2018-02-20T11:06:10.533Z,46.70
2018-02-20T11:08:39.367Z,42.73
2018-02-20T11:11:07.776Z,45.97
2018-02-20T11:13:35.391Z,44.27
2018-02-20T11:16:04.350Z,44.80
2018-02-20T11:18:32.010Z,41.67
2018-02-20T11:20:59.624Z,42.60
2018-02-20T11:23:28.004Z,38.63
2018-02-20T11:25:56.386Z,42.80
2018-02-20T11:28:24.740Z,35.90
2018-02-20T11:30:53.094Z,40.63
2018-02-20T11:33:20.714Z,44.77
2018-02-20T11:35:48.354Z,40.93
2018-02-20T11:38:16.808Z,36.23
2018-02-20T11:40:44.426Z,42.57
2018-02-20T11:43:12.085Z,32.23
2018-02-20T11:45:39.733Z,31.87
2018-02-20T11:48:07.363Z,35.40
2018-02-20T11:50:35.016Z,34.27
2018-02-20T11:53:04.181Z,32.00
2018-02-20T11:55:32.548Z,33.77
2018-02-20T11:58:00.158Z,35.23
2018-02-20T12:00:28.546Z,36.13
2018-02-20T12:02:57.539Z,30.90
2018-02-20T12:05:25.278Z,30.97
2018-02-20T12:07:52.911Z,33.57
2018-02-20T12:10:20.523Z,31.97
2018-02-20T12:12:48.982Z,31.20
2018-02-20T12:15:16.686Z,31.63
2018-02-20T12:17:44.285Z,28.47
2018-02-20T12:20:12.030Z,30.50
2018-02-20T12:22:39.652Z,29.93
2018-02-20T12:25:08.202Z,30.17
2018-02-20T12:27:36.715Z,29.93
2018-02-20T12:30:05.155Z,30.20
2018-02-20T12:32:32.748Z,31.47
2018-02-20T12:35:01.144Z,27.83
2018-02-20T12:37:28.773Z,36.93
2018-02-20T12:39:56.545Z,31.30
2018-02-20T12:42:24.973Z,32.63
2018-02-20T12:44:52.600Z,26.93
2018-02-20T12:47:20.373Z,30.93
2018-02-20T12:49:48.196Z,27.23
2018-02-20T12:52:15.837Z,27.60
2018-02-20T12:54:43.450Z,28.30
2018-02-20T12:57:11.918Z,31.33
2018-02-20T12:59:39.562Z,30.40
2018-02-20T13:02:08.064Z,29.77
2018-02-20T13:04:35.772Z,35.73
2018-02-20T13:07:03.425Z,33.20
2018-02-20T13:09:31.048Z,35.40
2018-02-20T13:11:58.701Z,32.70
2018-02-20T13:14:27.046Z,37.80
2018-02-20T13:16:54.651Z,33.63
2018-02-20T13:19:22.433Z,30.87
2018-02-20T13:21:50.101Z,33.50
2018-02-20T13:24:17.751Z,30.60
2018-02-20T13:26:46.059Z,30.70
2018-02-20T13:29:13.718Z,32.53
2018-02-20T13:31:41.359Z,29.63
2018-02-20T13:34:08.955Z,29.63
2018-02-20T13:36:36.560Z,30.80
2018-02-20T13:39:04.297Z,34.67
2018-02-20T13:41:32.654Z,30.80
2018-02-20T13:44:00.250Z,29.73
2018-02-20T13:46:28.660Z,28.47
2018-02-20T13:48:56.272Z,25.23
2018-02-20T13:51:24.643Z,27.50
2018-02-20T13:53:53.150Z,28.00
2018-02-20T13:56:21.526Z,26.67
2018-02-20T13:58:49.889Z,29.57
2018-02-20T14:01:18.368Z,31.33
2018-02-20T14:03:46.062Z,27.93
2018-02-20T14:06:13.678Z,26.17
2018-02-20T14:08:41.307Z,28.00
2018-02-20T14:11:09.681Z,27.47
2018-02-20T14:13:37.458Z,28.60
2018-02-20T14:16:05.155Z,30.43
2018-02-20T14:18:33.651Z,31.67
2018-02-20T14:21:02.251Z,27.43
2018-02-20T14:23:29.855Z,31.27
2018-02-20T14:25:57.516Z,30.53
2018-02-20T14:28:25.147Z,26.23
2018-02-20T14:30:52.764Z,28.43
2018-02-20T14:33:21.740Z,35.57
2018-02-20T14:35:49.433Z,31.50
2018-02-20T14:38:17.147Z,25.33
2018-02-20T14:40:44.890Z,25.60
2018-02-20T14:43:12.546Z,28.67
2018-02-20T14:45:40.161Z,25.50
2018-02-20T14:48:08.558Z,25.73
2018-02-20T14:50:36.197Z,23.97
2018-02-20T14:53:04.630Z,24.20
2018-02-20T14:55:32.324Z,21.43
2018-02-20T14:57:59.947Z,23.90
2018-02-20T15:00:27.750Z,27.97
2018-02-20T15:02:55.614Z,27.47
2018-02-20T15:05:23.213Z,28.23
2018-02-20T15:07:50.858Z,24.13
2018-02-20T15:10:19.239Z,28.90
2018-02-20T15:12:47.601Z,23.20
2018-02-20T15:15:15.258Z,22.17
2018-02-20T15:17:43.697Z,23.23
2018-02-20T15:20:11.297Z,21.93
2018-02-20T15:22:38.940Z,23.70
2018-02-20T15:25:06.538Z,23.73
2018-02-20T15:27:35.241Z,27.30
2018-02-20T15:30:02.894Z,23.77
2018-02-20T15:32:30.869Z,37.27
2018-02-20T15:34:58.602Z,18.30
2018-02-20T15:37:27.013Z,20.47
2018-02-20T15:39:54.785Z,20.57
2018-02-20T15:42:22.412Z,20.83
2018-02-20T15:44:50.890Z,22.20
2018-02-20T15:47:19.420Z,20.80
2018-02-20T15:49:47.166Z,21.83
2018-02-20T15:52:14.853Z,19.63
2018-02-20T15:54:42.482Z,21.53
2018-02-20T15:57:10.186Z,21.10
2018-02-20T15:59:37.824Z,24.73
2018-02-20T16:02:05.446Z,18.97
2018-02-20T16:04:33.862Z,19.83
2018-02-20T16:07:01.483Z,25.07
2018-02-20T16:09:29.893Z,20.00
2018-02-20T16:11:57.574Z,22.73
2018-02-20T16:14:25.697Z,20.37
2018-02-20T16:16:57.966Z,19.70
2018-02-20T16:19:25.589Z,19.47
2018-02-20T16:21:53.190Z,23.77
2018-02-20T16:24:20.890Z,21.37
2018-02-20T16:26:48.540Z,20.67
2018-02-20T16:29:16.253Z,21.50
2018-02-20T16:31:44.631Z,21.23
2018-02-20T16:34:13.422Z,21.27
2018-02-20T16:36:41.832Z,20.10
2018-02-20T16:39:09.423Z,22.00
2018-02-20T16:41:37.079Z,23.80
2018-02-20T16:44:04.712Z,21.73
2018-02-20T16:46:33.405Z,23.10
2018-02-20T16:49:01.002Z,20.07
2018-02-20T16:51:28.620Z,21.27
2018-02-20T16:53:56.351Z,25.87
2018-02-20T16:56:24.702Z,24.83
2018-02-20T16:58:52.394Z,21.27
2018-02-20T17:01:20.786Z,23.10
2018-02-20T17:03:48.415Z,24.03
2018-02-20T17:06:16.023Z,27.33
2018-02-20T17:08:43.711Z,17.43
2018-02-20T17:11:11.335Z,17.20
2018-02-20T17:13:38.995Z,21.67
2018-02-20T17:16:07.209Z,20.43
2018-02-20T17:18:34.981Z,20.93
2018-02-20T17:21:02.720Z,19.00
2018-02-20T17:23:30.342Z,20.53
2018-02-20T17:25:57.941Z,19.57
2018-02-20T17:28:25.602Z,24.17
2018-02-20T17:30:53.265Z,25.00
2018-02-20T17:33:21.309Z,20.63
2018-02-20T17:35:49.176Z,21.67
2018-02-20T17:38:16.860Z,22.50
2018-02-20T17:40:44.522Z,24.83
2018-02-20T17:43:12.954Z,22.03
2018-02-20T17:45:40.642Z,20.17
2018-02-20T17:48:08.237Z,19.07
2018-02-20T17:50:35.903Z,26.70
2018-02-20T17:53:03.565Z,26.60
2018-02-20T17:55:31.221Z,23.20
2018-02-20T17:57:58.964Z,21.27
2018-02-20T18:00:27.442Z,21.93
2018-02-20T18:02:56.099Z,21.20
2018-02-20T18:05:23.820Z,26.80
2018-02-20T18:07:51.418Z,22.57
2018-02-20T18:10:19.666Z,25.17
2018-02-20T18:12:48.078Z,21.43
2018-02-20T18:15:15.682Z,23.40
2018-02-20T18:17:43.324Z,24.27
2018-02-20T18:20:10.966Z,24.37
2018-02-20T18:22:38.764Z,25.43
2018-02-20T18:25:06.370Z,26.20
2018-02-20T18:27:34.043Z,23.47
2018-02-20T18:30:01.671Z,24.13
2018-02-20T18:32:30.058Z,25.63
2018-02-20T18:34:58.616Z,24.17
2018-02-20T18:37:26.233Z,25.60
2018-02-20T18:39:53.887Z,22.03
2018-02-20T18:42:21.508Z,26.57
2018-02-20T18:44:49.911Z,25.03
2018-02-20T18:47:18.298Z,27.17
2018-02-20T18:49:45.965Z,31.60
2018-02-20T18:52:13.698Z,25.90
2018-02-20T18:54:41.525Z,23.57
2018-02-20T18:57:09.303Z,24.17
2018-02-20T18:59:36.946Z,27.27
2018-02-20T19:02:05.446Z,30.53
2018-02-20T19:04:33.145Z,31.53
2018-02-20T19:07:01.744Z,26.63
2018-02-20T19:09:29.515Z,28.20
2018-02-20T19:11:57.163Z,27.00
2018-02-20T19:14:24.816Z,29.50
2018-02-20T19:16:52.434Z,24.20
2018-02-20T19:19:20.688Z,31.43
2018-02-20T19:21:49.168Z,27.60
2018-02-20T19:24:16.811Z,27.23
2018-02-20T19:26:44.696Z,31.23
2018-02-20T19:29:13.605Z,27.07
2018-02-20T19:31:41.547Z,29.33
2018-02-20T19:34:10.861Z,28.40
2018-02-20T19:36:38.507Z,29.23
2018-02-20T19:39:06.852Z,27.83
2018-02-20T19:41:35.445Z,34.60
2018-02-20T19:44:03.100Z,30.90
2018-02-20T19:46:30.859Z,31.60
2018-02-20T19:48:58.457Z,30.60
2018-02-20T19:51:26.123Z,31.87
2018-02-20T19:53:54.102Z,32.07
2018-02-20T19:56:22.663Z,29.30
2018-02-20T19:58:50.436Z,30.67
2018-02-20T20:01:18.097Z,32.73
2018-02-20T20:03:45.746Z,33.23
2018-02-20T20:06:13.402Z,30.27
2018-02-20T20:08:42.793Z,33.87
2018-02-20T20:11:10.435Z,35.67
2018-02-20T20:13:38.068Z,32.37
2018-02-20T20:16:05.695Z,35.43
2018-02-20T20:18:34.668Z,34.17
2018-02-20T20:21:02.332Z,37.33
2018-02-20T20:23:30.551Z,33.17
2018-02-20T20:25:58.199Z,33.40
2018-02-20T20:28:26.984Z,35.13
2018-02-20T20:30:54.598Z,31.53
2018-02-20T20:33:23.072Z,33.03
2018-02-20T20:35:50.772Z,34.70
2018-02-20T20:38:18.475Z,35.17
2018-02-20T20:40:46.943Z,38.37
2018-02-20T20:43:15.397Z,33.57
2018-02-20T20:45:43.078Z,34.70
2018-02-20T20:48:10.728Z,37.80
2018-02-20T20:50:38.406Z,35.37
2018-02-20T20:53:06.172Z,34.40
2018-02-20T20:55:33.862Z,33.57
2018-02-20T20:58:01.631Z,38.20
2018-02-20T21:00:29.366Z,35.10
2018-02-20T21:02:57.808Z,33.47
2018-02-20T21:05:26.475Z,36.60
2018-02-20T21:07:54.216Z,38.20
2018-02-20T21:12:55.819Z,32.97
2018-02-20T21:15:23.499Z,36.70
2018-02-20T21:17:51.138Z,37.80
2018-02-20T21:20:18.818Z,37.00
2018-02-20T21:22:46.535Z,40.20
2018-02-20T21:25:14.185Z,37.33
2018-02-20T21:27:44.074Z,35.73
2018-02-20T21:30:11.868Z,36.90
2018-02-20T21:32:39.520Z,37.77
2018-02-20T21:35:07.491Z,38.63
2018-02-20T21:37:35.230Z,34.20
2018-02-20T21:40:04.632Z,38.00
2018-02-20T21:42:32.307Z,33.67
2018-02-20T21:45:00.699Z,36.00
2018-02-20T21:47:28.329Z,32.23
2018-02-20T21:49:55.968Z,35.77
2018-02-20T21:52:23.610Z,33.63
2018-02-20T21:54:51.339Z,36.33
2018-02-20T21:57:19.809Z,33.83
2018-02-20T21:59:48.177Z,31.27
2018-02-20T22:02:16.588Z,31.60
2018-02-20T22:04:44.194Z,30.57
2018-02-20T22:07:11.935Z,31.47
2018-02-20T22:09:45.607Z,32.47
2018-02-20T22:12:13.298Z,34.33
2018-02-20T22:14:40.940Z,33.97
2018-02-20T22:17:08.542Z,31.23
2018-02-20T22:19:36.187Z,35.60
2018-02-20T22:24:43.434Z,35.50
2018-02-20T22:27:11.102Z,30.90
2018-02-20T22:29:39.657Z,31.57
2018-02-20T22:32:08.409Z,33.97
2018-02-20T22:34:36.820Z,31.47
2018-02-20T22:37:06.073Z,35.17
2018-02-20T22:39:33.778Z,29.80
2018-02-20T22:42:01.480Z,31.63
2018-02-20T22:44:29.120Z,30.03
2018-02-20T22:46:57.922Z,29.67
2018-02-20T22:49:26.420Z,29.20
2018-02-20T22:51:54.070Z,31.10
2018-02-20T22:54:21.710Z,31.67
2018-02-20T22:56:50.167Z,34.40
2018-02-20T22:59:17.807Z,28.10
2018-02-20T23:01:45.476Z,31.10
2018-02-20T23:04:13.122Z,31.30
2018-02-20T23:06:40.773Z,31.30
2018-02-20T23:09:08.440Z,29.50
2018-02-20T23:11:48.022Z,31.70
2018-02-20T23:14:16.446Z,30.23
2018-02-20T23:16:44.035Z,35.37
2018-02-20T23:19:11.665Z,34.43
2018-02-20T23:21:39.340Z,31.10
2018-02-20T23:24:07.003Z,31.77
2018-02-20T23:26:34.790Z,29.17
2018-02-20T23:29:02.534Z,29.83
2018-02-20T23:31:30.213Z,35.03
2018-02-20T23:33:57.855Z,29.10
2018-02-20T23:36:25.562Z,30.73
2018-02-20T23:38:53.208Z,28.67
2018-02-20T23:41:20.835Z,30.73
2018-02-20T23:43:48.535Z,31.57
2018-02-20T23:46:16.948Z,31.23
2018-02-20T23:48:44.586Z,33.40
2018-02-20T23:51:18.625Z,28.30
2018-02-20T23:53:46.259Z,34.10
2018-02-20T23:56:14.690Z,31.10
2018-02-20T23:58:42.331Z,31.70
